City of Colorado Springs Municipal Airport
KCOS : now visible

Airfield :











YOU CAN JOIN US ON...

 
LOGIN :

Register | Disclaimer

   EN    FR    IT 

 









Legend :    VFR   Marginal VFR   IFR   Intensive IFR   Very Intensive IFR
Visi :
Ceiling :
>= 8 km
>= 3000ft
5 to 8 km
1000 to 3000 ft
1500m to 5 km
500 to 1000 ft
800 to 1500m
200 to 500 ft
< 800m
< 200 ft
Symbols :   Thunderstorms  Fog  Heavy snow  Heavy precipitations  Wind > 20 kt






- Airport Elevation : 6187 ft
- IATA code : COS


KCOS - City of Colorado Springs Municipal

CURRENT METAR :
  • 151454Z 34007KT 10SM FEW015 BKN032 OVC045 M02/M11 A2983 RMK AO2 SLP131 SHSN DSNT S-SW T10221106 51022 $

EXPIRED METARs :
  • 151354Z 01011KT 10SM SCT025 BKN046 OVC110 M02/M07 A2980 RMK AO2 SLP119 T10221072 $
  • 151254Z 04010KT 10SM SCT025 BKN045 OVC110 M02/M07 A2978 RMK AO2 SLP104 T10221067 $

TAF KCOS
Valid from the 15 at 12:00 until the 16 at 12:00 UTC


151123Z 1512/1612 VRB05KT P6SM VCSH SCT020 OVC040
FM151900 36012KT 5SM -SN BR SCT008 OVC010
FM152100 10009KT 2SM -SN BR OVC006



MET'MAP, your aeronautical weather chart ! - Copyright ORBIFLY December 2007 - Disclaimer

ORBIFLY MET'MAP TEAM :

Programming & Development : Alexandra Zaïnal
Concept & original design : Baudouin d'Aumeries
Assistance for programming : Marc-Olivier Méhu
Technical & hardware support : Manuel Goepfert

Contact : metmap@orbifly.com




SOURCES & CREDITS :

   NOAA       Earth
Advisory